sensor_id;sensor_type;location;lat;lon;timestamp;pressure;altitude;pressure_sealevel;temperature;humidity
12475;BME280;6302;42.624;23.334;2024-03-23T00:54:18;93286.69;;;4.84;100.00
12475;BME280;6302;42.624;23.334;2024-03-23T00:56:44;93283.66;;;4.82;100.00
12475;BME280;6302;42.624;23.334;2024-03-23T00:59:10;93149.78;;;3.92;100.00
12475;BME280;6302;42.624;23.334;2024-03-23T01:01:37;93239.59;;;4.38;100.00
12475;BME280;6302;42.624;23.334;2024-03-23T01:04:03;93169.09;;;4.07;100.00
12475;BME280;6302;42.624;23.334;2024-03-23T01:06:29;93165.94;;;3.98;100.00
12475;BME280;6302;42.624;23.334;2024-03-23T01:08:55;93284.41;;;4.82;100.00
12475;BME280;6302;42.624;23.334;2024-03-23T01:11:23;93155.06;;;3.96;100.00
12475;BME280;6302;42.624;23.334;2024-03-23T01:13:49;93278.38;;;4.78;100.00
12475;BME280;6302;42.624;23.334;2024-03-23T01:16:16;93151.34;;;3.97;100.00
12475;BME280;6302;42.624;23.334;2024-03-23T01:18:41;93270.13;;;4.80;100.00
12475;BME280;6302;42.624;23.334;2024-03-23T01:21:08;93146.09;;;3.97;100.00
12475;BME280;6302;42.624;23.334;2024-03-23T01:23:34;93278.00;;;4.80;100.00
12475;BME280;6302;42.624;23.334;2024-03-23T01:26:01;93158.06;;;3.98;100.00
12475;BME280;6302;42.624;23.334;2024-03-23T01:28:28;93267.88;;;4.78;100.00
12475;BME280;6302;42.624;23.334;2024-03-23T01:30:54;93274.59;;;4.76;100.00
12475;BME280;6302;42.624;23.334;2024-03-23T01:33:20;93267.03;;;4.71;100.00
12475;BME280;6302;42.624;23.334;2024-03-23T01:35:47;93246.47;;;4.50;100.00
12475;BME280;6302;42.624;23.334;2024-03-23T01:38:13;93065.50;;;3.15;100.00
12475;BME280;6302;42.624;23.334;2024-03-23T01:40:40;93143.16;;;3.76;100.00
12475;BME280;6302;42.624;23.334;2024-03-23T01:43:07;93121.19;;;3.58;100.00
12475;BME280;6302;42.624;23.334;2024-03-23T01:45:37;93263.19;;;4.65;100.00
12475;BME280;6302;42.624;23.334;2024-03-23T01:48:03;93234.63;;;4.33;100.00
12475;BME280;6302;42.624;23.334;2024-03-23T01:50:31;93262.75;;;4.59;100.00
12475;BME280;6302;42.624;23.334;2024-03-23T01:52:59;93272.47;;;4.58;100.00
12475;BME280;6302;42.624;23.334;2024-03-23T01:55:26;93211.44;;;4.09;100.00
12475;BME280;6302;42.624;23.334;2024-03-23T01:57:52;93122.56;;;3.52;100.00
12475;BME280;6302;42.624;23.334;2024-03-23T02:00:19;93147.53;;;3.68;100.00
12475;BME280;6302;42.624;23.334;2024-03-23T02:02:47;93242.00;;;4.24;100.00
12475;BME280;6302;42.624;23.334;2024-03-23T02:05:14;93258.25;;;4.33;100.00
12475;BME280;6302;42.624;23.334;2024-03-23T02:07:40;93085.22;;;3.09;100.00
12475;BME280;6302;42.624;23.334;2024-03-23T02:10:09;93161.16;;;3.55;100.00
12475;BME280;6302;42.624;23.334;2024-03-23T02:12:35;93126.31;;;3.28;100.00
12475;BME280;6302;42.624;23.334;2024-03-23T02:15:02;93115.78;;;3.24;100.00
12475;BME280;6302;42.624;23.334;2024-03-23T02:17:29;93002.47;;;2.56;100.00
12475;BME280;6302;42.624;23.334;2024-03-23T02:19:58;93271.75;;;4.35;100.00
12475;BME280;6302;42.624;23.334;2024-03-23T02:22:23;93031.09;;;2.68;100.00
12475;BME280;6302;42.624;23.334;2024-03-23T02:24:51;93277.72;;;4.32;100.00
12475;BME280;6302;42.624;23.334;2024-03-23T02:27:17;93159.53;;;3.47;100.00
12475;BME280;6302;42.624;23.334;2024-03-23T02:29:44;93114.72;;;3.06;100.00
12475;BME280;6302;42.624;23.334;2024-03-23T02:32:10;93281.75;;;4.26;100.00
12475;BME280;6302;42.624;23.334;2024-03-23T02:34:37;93005.59;;;2.42;100.00
12475;BME280;6302;42.624;23.334;2024-03-23T02:37:02;93157.22;;;3.42;100.00
12475;BME280;6302;42.624;23.334;2024-03-23T02:39:36;93160.13;;;3.37;100.00
12475;BME280;6302;42.624;23.334;2024-03-23T02:42:04;93249.84;;;3.98;100.00
12475;BME280;6302;42.624;23.334;2024-03-23T02:44:30;93079.81;;;2.76;100.00
12475;BME280;6302;42.624;23.334;2024-03-23T02:46:56;93271.47;;;4.14;100.00
12475;BME280;6302;42.624;23.334;2024-03-23T02:49:23;93114.72;;;3.06;100.00
12475;BME280;6302;42.624;23.334;2024-03-23T02:51:49;93207.88;;;3.72;100.00
12475;BME280;6302;42.624;23.334;2024-03-23T02:54:16;93040.94;;;2.55;100.00
12475;BME280;6302;42.624;23.334;2024-03-23T02:56:41;93134.78;;;3.21;100.00
12475;BME280;6302;42.624;23.334;2024-03-23T02:59:09;93003.50;;;2.29;100.00
12475;BME280;6302;42.624;23.334;2024-03-23T03:01:35;93205.31;;;3.53;100.00
12475;BME280;6302;42.624;23.334;2024-03-23T03:04:02;93075.84;;;2.63;100.00
12475;BME280;6302;42.624;23.334;2024-03-23T03:06:30;93143.31;;;3.15;100.00
12475;BME280;6302;42.624;23.334;2024-03-23T03:08:57;93264.47;;;3.99;100.00
12475;BME280;6302;42.624;23.334;2024-03-23T03:11:23;93106.88;;;2.84;100.00
12475;BME280;6302;42.624;23.334;2024-03-23T03:13:50;93075.06;;;2.62;100.00
12475;BME280;6302;42.624;23.334;2024-03-23T03:16:17;93130.25;;;2.96;100.00
12475;BME280;6302;42.624;23.334;2024-03-23T03:18:43;93143.94;;;3.08;100.00
12475;BME280;6302;42.624;23.334;2024-03-23T03:21:11;93176.53;;;3.34;100.00
12475;BME280;6302;42.624;23.334;2024-03-23T03:23:38;93149.88;;;3.05;100.00
12475;BME280;6302;42.624;23.334;2024-03-23T03:26:04;93269.66;;;3.95;100.00
12475;BME280;6302;42.624;23.334;2024-03-23T03:28:32;93062.84;;;2.47;100.00
12475;BME280;6302;42.624;23.334;2024-03-23T03:30:58;93271.09;;;3.93;100.00
12475;BME280;6302;42.624;23.334;2024-03-23T03:33:27;93264.34;;;3.92;100.00
12475;BME280;6302;42.624;23.334;2024-03-23T03:35:52;93206.28;;;3.45;100.00
12475;BME280;6302;42.624;23.334;2024-03-23T03:38:19;93160.06;;;3.10;100.00
12475;BME280;6302;42.624;23.334;2024-03-23T03:40:45;93275.84;;;3.84;100.00
12475;BME280;6302;42.624;23.334;2024-03-23T03:43:12;93265.72;;;3.82;100.00
12475;BME280;6302;42.624;23.334;2024-03-23T03:45:38;93120.97;;;2.79;100.00
12475;BME280;6302;42.624;23.334;2024-03-23T03:48:05;93154.63;;;3.00;100.00
12475;BME280;6302;42.624;23.334;2024-03-23T03:50:32;93099.78;;;2.65;100.00
12475;BME280;6302;42.624;23.334;2024-03-23T03:52:59;93242.09;;;3.60;100.00
12475;BME280;6302;42.624;23.334;2024-03-23T03:55:25;93159.47;;;2.98;100.00
12475;BME280;6302;42.624;23.334;2024-03-23T03:57:51;93164.88;;;3.08;100.00
12475;BME280;6302;42.624;23.334;2024-03-23T04:00:18;93277.97;;;3.78;100.00
12475;BME280;6302;42.624;23.334;2024-03-23T04:02:44;93108.75;;;2.64;100.00
12475;BME280;6302;42.624;23.334;2024-03-23T04:05:10;93066.72;;;2.34;100.00
12475;BME280;6302;42.624;23.334;2024-03-23T04:07:39;93246.50;;;3.56;100.00
12475;BME280;6302;42.624;23.334;2024-03-23T04:10:06;93092.50;;;2.55;100.00
12475;BME280;6302;42.624;23.334;2024-03-23T04:12:33;93132.03;;;2.69;100.00
12475;BME280;6302;42.624;23.334;2024-03-23T04:14:59;93044.34;;;2.18;100.00
12475;BME280;6302;42.624;23.334;2024-03-23T04:17:26;93272.97;;;3.70;100.00
12475;BME280;6302;42.624;23.334;2024-03-23T04:19:57;93271.72;;;3.64;100.00
12475;BME280;6302;42.624;23.334;2024-03-23T04:22:24;93085.78;;;2.35;100.00
12475;BME280;6302;42.624;23.334;2024-03-23T04:24:52;93275.88;;;3.65;100.00
12475;BME280;6302;42.624;23.334;2024-03-23T04:27:19;93147.91;;;2.80;100.00
12475;BME280;6302;42.624;23.334;2024-03-23T04:29:47;93278.09;;;3.63;100.00
12475;BME280;6302;42.624;23.334;2024-03-23T04:32:14;93151.56;;;2.75;100.00
12475;BME280;6302;42.624;23.334;2024-03-23T04:34:40;93283.34;;;3.63;100.00
12475;BME280;6302;42.624;23.334;2024-03-23T04:37:07;93128.03;;;2.56;100.00
12475;BME280;6302;42.624;23.334;2024-03-23T04:39:34;93100.50;;;2.24;100.00
12475;BME280;6302;42.624;23.334;2024-03-23T04:42:02;93120.47;;;2.51;100.00
12475;BME280;6302;42.624;23.334;2024-03-23T04:44:29;93294.63;;;3.67;100.00
12475;BME280;6302;42.624;23.334;2024-03-23T04:46:56;93286.06;;;3.70;100.00
12475;BME280;6302;42.624;23.334;2024-03-23T04:49:23;93290.19;;;3.71;100.00
12475;BME280;6302;42.624;23.334;2024-03-23T04:51:49;93128.91;;;2.63;100.00
12475;BME280;6302;42.624;23.334;2024-03-23T04:54:16;93141.72;;;2.69;100.00
12475;BME280;6302;42.624;23.334;2024-03-23T04:56:43;93291.84;;;3.79;100.00
12475;BME280;6302;42.624;23.334;2024-03-23T04:59:10;93153.75;;;2.92;100.00
12475;BME280;6302;42.624;23.334;2024-03-23T05:01:37;93179.84;;;3.08;100.00
12475;BME280;6302;42.624;23.334;2024-03-23T05:04:04;93149.69;;;2.95;100.00
12475;BME280;6302;42.624;23.334;2024-03-23T05:06:31;93186.88;;;3.26;100.00
12475;BME280;6302;42.624;23.334;2024-03-23T05:08:57;93294.66;;;4.12;100.00
12475;BME280;6302;42.624;23.334;2024-03-23T05:11:24;93174.34;;;3.36;100.00
12475;BME280;6302;42.624;23.334;2024-03-23T05:13:50;93144.63;;;3.05;100.00
12475;BME280;6302;42.624;23.334;2024-03-23T05:16:18;93017.09;;;2.38;100.00
12475;BME280;6302;42.624;23.334;2024-03-23T05:18:43;93098.78;;;2.92;100.00
12475;BME280;6302;42.624;23.334;2024-03-23T05:21:10;93238.94;;;3.96;100.00
12475;BME280;6302;42.624;23.334;2024-03-23T05:23:36;93200.56;;;3.84;100.00
12475;BME280;6302;42.624;23.334;2024-03-23T05:26:03;93159.81;;;3.64;100.00
12475;BME280;6302;42.624;23.334;2024-03-23T05:28:30;93265.50;;;4.43;100.00
12475;BME280;6302;42.624;23.334;2024-03-23T05:30:56;93285.31;;;4.64;100.00
12475;BME280;6302;42.624;23.334;2024-03-23T05:33:23;93276.00;;;4.70;100.00
12475;BME280;6302;42.624;23.334;2024-03-23T05:35:56;93226.41;;;4.35;100.00
12475;BME280;6302;42.624;23.334;2024-03-23T05:38:22;93115.81;;;3.51;100.00
12475;BME280;6302;42.624;23.334;2024-03-23T05:40:53;93252.28;;;4.63;100.00
12475;BME280;6302;42.624;23.334;2024-03-23T05:43:19;93136.66;;;3.92;100.00
12475;BME280;6302;42.624;23.334;2024-03-23T05:45:46;93069.19;;;3.60;100.00
12475;BME280;6302;42.624;23.334;2024-03-23T05:48:11;93133.38;;;3.99;100.00
12475;BME280;6302;42.624;23.334;2024-03-23T05:50:42;93219.16;;;4.54;100.00
12475;BME280;6302;42.624;23.334;2024-03-23T05:53:08;93292.84;;;4.95;100.00
12475;BME280;6302;42.624;23.334;2024-03-23T05:55:35;93258.06;;;4.75;100.00
12475;BME280;6302;42.624;23.334;2024-03-23T05:58:00;93095.28;;;3.53;100.00
12475;BME280;6302;42.624;23.334;2024-03-23T06:00:27;93097.03;;;3.71;100.00
12475;BME280;6302;42.624;23.334;2024-03-23T06:02:53;93284.09;;;5.17;100.00
12475;BME280;6302;42.624;23.334;2024-03-23T06:05:20;93142.75;;;4.26;100.00
12475;BME280;6302;42.624;23.334;2024-03-23T06:07:47;93268.41;;;5.20;100.00
12475;BME280;6302;42.624;23.334;2024-03-23T06:10:15;93142.28;;;4.50;100.00
12475;BME280;6302;42.624;23.334;2024-03-23T06:12:41;93167.34;;;4.78;100.00
12475;BME280;6302;42.624;23.334;2024-03-23T06:15:09;93167.44;;;4.85;100.00
12475;BME280;6302;42.624;23.334;2024-03-23T06:17:36;93232.91;;;5.37;100.00
12475;BME280;6302;42.624;23.334;2024-03-23T06:20:03;93282.53;;;5.79;100.00
12475;BME280;6302;42.624;23.334;2024-03-23T06:22:29;93265.56;;;5.73;100.00
12475;BME280;6302;42.624;23.334;2024-03-23T06:24:58;93158.66;;;5.07;100.00
12475;BME280;6302;42.624;23.334;2024-03-23T06:27:23;93288.38;;;5.99;100.00
12475;BME280;6302;42.624;23.334;2024-03-23T06:29:50;93231.84;;;5.82;100.00
12475;BME280;6302;42.624;23.334;2024-03-23T06:32:16;93191.47;;;5.60;100.00
12475;BME280;6302;42.624;23.334;2024-03-23T06:34:44;93285.22;;;6.26;100.00
12475;BME280;6302;42.624;23.334;2024-03-23T06:37:10;93260.69;;;6.15;100.00
12475;BME280;6302;42.624;23.334;2024-03-23T06:39:37;93162.78;;;5.45;100.00
12475;BME280;6302;42.624;23.334;2024-03-23T06:42:05;93286.84;;;6.41;100.00
12475;BME280;6302;42.624;23.334;2024-03-23T06:44:31;93291.78;;;6.46;100.00
12475;BME280;6302;42.624;23.334;2024-03-23T06:46:57;93141.06;;;5.51;99.38
12475;BME280;6302;42.624;23.334;2024-03-23T06:49:24;93240.41;;;6.12;100.00
12475;BME280;6302;42.624;23.334;2024-03-23T06:51:51;93293.75;;;6.57;100.00
12475;BME280;6302;42.624;23.334;2024-03-23T06:54:19;93224.97;;;6.11;100.00
12475;BME280;6302;42.624;23.334;2024-03-23T06:56:46;93299.06;;;6.67;98.22
12475;BME280;6302;42.624;23.334;2024-03-23T06:59:13;93172.13;;;5.82;98.55
12475;BME280;6302;42.624;23.334;2024-03-23T07:01:40;93180.22;;;6.07;98.40
12475;BME280;6302;42.624;23.334;2024-03-23T07:04:06;93253.88;;;6.58;99.44
12475;BME280;6302;42.624;23.334;2024-03-23T07:06:33;93266.03;;;6.80;98.60
12475;BME280;6302;42.624;23.334;2024-03-23T07:08:58;93169.41;;;6.23;98.20
12475;BME280;6302;42.624;23.334;2024-03-23T07:11:26;93241.94;;;6.78;96.95
12475;BME280;6302;42.624;23.334;2024-03-23T07:13:52;93230.63;;;6.71;96.89
12475;BME280;6302;42.624;23.334;2024-03-23T07:16:21;93212.50;;;6.59;98.63
12475;BME280;6302;42.624;23.334;2024-03-23T07:18:47;93283.22;;;7.32;98.82
12475;BME280;6302;42.624;23.334;2024-03-23T07:21:14;93075.31;;;5.99;98.96
12475;BME280;6302;42.624;23.334;2024-03-23T07:23:42;93276.47;;;7.35;97.79
12475;BME280;6302;42.624;23.334;2024-03-23T07:26:10;93280.66;;;7.50;96.40
12475;BME280;6302;42.624;23.334;2024-03-23T07:28:36;93229.34;;;7.26;97.27
12475;BME280;6302;42.624;23.334;2024-03-23T07:31:04;93276.56;;;7.73;95.10
12475;BME280;6302;42.624;23.334;2024-03-23T07:33:32;93154.00;;;7.07;94.19
12475;BME280;6302;42.624;23.334;2024-03-23T07:35:59;93266.44;;;7.82;92.84
12475;BME280;6302;42.624;23.334;2024-03-23T07:38:26;93215.50;;;7.61;92.65
12475;BME280;6302;42.624;23.334;2024-03-23T07:41:02;93241.91;;;7.93;92.15
12475;BME280;6302;42.624;23.334;2024-03-23T07:43:28;93088.47;;;6.85;92.24
12475;BME280;6302;42.624;23.334;2024-03-23T07:45:55;93246.84;;;8.01;92.80
12475;BME280;6302;42.624;23.334;2024-03-23T07:48:21;93215.16;;;7.98;91.61
12475;BME280;6302;42.624;23.334;2024-03-23T07:50:58;93234.81;;;8.28;89.95
12475;BME280;6302;42.624;23.334;2024-03-23T07:53:24;93059.91;;;7.18;89.98
12475;BME280;6302;42.624;23.334;2024-03-23T07:55:59;93183.50;;;8.19;85.97
12475;BME280;6302;42.624;23.334;2024-03-23T07:58:25;93258.91;;;8.73;85.89
12475;BME280;6302;42.624;23.334;2024-03-23T08:00:52;93266.84;;;8.76;85.60
12475;BME280;6302;42.624;23.334;2024-03-23T08:03:19;93121.31;;;7.79;86.00
12475;BME280;6302;42.624;23.334;2024-03-23T08:05:45;93215.16;;;8.50;84.80
12475;BME280;6302;42.624;23.334;2024-03-23T08:08:13;93202.31;;;8.63;86.32
12475;BME280;6302;42.624;23.334;2024-03-23T08:10:47;93274.66;;;9.11;82.01
12475;BME280;6302;42.624;23.334;2024-03-23T08:13:14;93213.63;;;8.67;80.23
12475;BME280;6302;42.624;23.334;2024-03-23T08:15:40;93266.41;;;9.06;80.71
12475;BME280;6302;42.624;23.334;2024-03-23T08:18:07;93244.50;;;9.02;80.73
12475;BME280;6302;42.624;23.334;2024-03-23T08:20:33;93268.97;;;9.31;78.24
12475;BME280;6302;42.624;23.334;2024-03-23T08:22:59;93267.03;;;9.38;78.77
12475;BME280;6302;42.624;23.334;2024-03-23T08:25:27;93117.13;;;8.38;77.58
12475;BME280;6302;42.624;23.334;2024-03-23T08:27:53;93260.13;;;9.58;77.81
12475;BME280;6302;42.624;23.334;2024-03-23T08:30:19;93257.44;;;9.72;77.83
12475;BME280;6302;42.624;23.334;2024-03-23T08:32:46;93232.81;;;9.75;72.84
12475;BME280;6302;42.624;23.334;2024-03-23T08:35:12;93251.94;;;10.04;73.23
12475;BME280;6302;42.624;23.334;2024-03-23T08:37:38;93235.69;;;10.02;73.92
12475;BME280;6302;42.624;23.334;2024-03-23T08:40:06;93260.81;;;10.35;71.33
12475;BME280;6302;42.624;23.334;2024-03-23T08:42:35;93249.47;;;10.34;69.55
12475;BME280;6302;42.624;23.334;2024-03-23T08:45:02;93239.13;;;10.47;69.64
12475;BME280;6302;42.624;23.334;2024-03-23T08:47:28;93248.25;;;10.46;69.58
12475;BME280;6302;42.624;23.334;2024-03-23T08:49:55;93244.84;;;10.45;68.27
12475;BME280;6302;42.624;23.334;2024-03-23T08:52:20;93182.66;;;10.16;67.92
12475;BME280;6302;42.624;23.334;2024-03-23T08:54:48;93241.19;;;10.73;66.90
12475;BME280;6302;42.624;23.334;2024-03-23T08:57:14;93186.53;;;10.49;64.92
12475;BME280;6302;42.624;23.334;2024-03-23T08:59:42;93173.94;;;10.60;66.16
12475;BME280;6302;42.624;23.334;2024-03-23T09:02:08;93233.25;;;11.10;65.17
12475;BME280;6302;42.624;23.334;2024-03-23T09:04:34;93186.66;;;10.72;63.48
12475;BME280;6302;42.624;23.334;2024-03-23T09:07:00;93218.47;;;11.09;65.97
12475;BME280;6302;42.624;23.334;2024-03-23T09:09:27;93207.31;;;11.25;64.69
12475;BME280;6302;42.624;23.334;2024-03-23T09:11:53;93216.09;;;11.49;65.53
12475;BME280;6302;42.624;23.334;2024-03-23T09:14:21;93178.91;;;11.52;61.23
12475;BME280;6302;42.624;23.334;2024-03-23T09:16:49;93177.31;;;11.58;59.02
12475;BME280;6302;42.624;23.334;2024-03-23T09:19:17;93185.16;;;11.69;58.37
12475;BME280;6302;42.624;23.334;2024-03-23T09:21:43;93167.34;;;11.66;57.76
12475;BME280;6302;42.624;23.334;2024-03-23T09:24:09;93171.78;;;11.76;58.29
12475;BME280;6302;42.624;23.334;2024-03-23T09:26:35;93158.75;;;11.85;59.33
12475;BME280;6302;42.624;23.334;2024-03-23T09:29:02;93147.31;;;11.88;59.89
12475;BME280;6302;42.624;23.334;2024-03-23T09:31:30;93074.06;;;11.41;59.13
12475;BME280;6302;42.624;23.334;2024-03-23T09:34:00;93172.41;;;12.10;59.52
12475;BME280;6302;42.624;23.334;2024-03-23T09:36:26;93135.41;;;12.00;56.76
12475;BME280;6302;42.624;23.334;2024-03-23T09:38:53;93146.00;;;12.23;57.46
12475;BME280;6302;42.624;23.334;2024-03-23T09:41:18;93080.47;;;11.93;55.53
12475;BME280;6302;42.624;23.334;2024-03-23T09:43:45;93176.53;;;12.58;57.24
12475;BME280;6302;42.624;23.334;2024-03-23T09:46:14;93175.75;;;12.61;55.23
12475;BME280;6302;42.624;23.334;2024-03-23T09:48:41;93122.94;;;12.39;55.66
12475;BME280;6302;42.624;23.334;2024-03-23T09:51:10;93133.81;;;12.68;55.86
12475;BME280;6302;42.624;23.334;2024-03-23T09:53:37;93153.44;;;13.17;54.48
12475;BME280;6302;42.624;23.334;2024-03-23T09:56:03;93131.53;;;13.10;49.96
12475;BME280;6302;42.624;23.334;2024-03-23T09:58:30;93095.66;;;12.78;51.55
12475;BME280;6302;42.624;23.334;2024-03-23T10:00:57;93146.59;;;13.16;50.99
12475;BME280;6302;42.624;23.334;2024-03-23T10:03:24;93106.84;;;13.09;50.87
12475;BME280;6302;42.624;23.334;2024-03-23T10:06:00;93133.91;;;13.59;49.13
12475;BME280;6302;42.624;23.334;2024-03-23T10:08:29;93106.75;;;13.48;50.19
12475;BME280;6302;42.624;23.334;2024-03-23T10:10:55;93115.50;;;13.49;50.04
12475;BME280;6302;42.624;23.334;2024-03-23T10:13:25;93100.50;;;13.39;49.69
12475;BME280;6302;42.624;23.334;2024-03-23T10:15:56;92981.88;;;12.70;49.79
12475;BME280;6302;42.624;23.334;2024-03-23T10:18:24;93131.09;;;13.66;49.65
12475;BME280;6302;42.624;23.334;2024-03-23T10:20:52;93120.94;;;13.78;49.11
12475;BME280;6302;42.624;23.334;2024-03-23T10:23:29;93103.63;;;13.69;49.06
12475;BME280;6302;42.624;23.334;2024-03-23T10:25:55;93113.47;;;13.73;48.38
12475;BME280;6302;42.624;23.334;2024-03-23T10:28:59;93100.56;;;13.87;48.52
12475;BME280;6302;42.624;23.334;2024-03-23T10:31:26;93103.34;;;14.12;47.38
12475;BME280;6302;42.624;23.334;2024-03-23T10:33:52;93098.22;;;14.21;47.87
12475;BME280;6302;42.624;23.334;2024-03-23T10:36:20;93086.44;;;14.35;47.99
12475;BME280;6302;42.624;23.334;2024-03-23T10:38:47;93097.94;;;14.48;44.91
12475;BME280;6302;42.624;23.334;2024-03-23T10:41:16;93085.38;;;14.32;43.23
12475;BME280;6302;42.624;23.334;2024-03-23T10:43:43;93082.09;;;14.25;45.14
12475;BME280;6302;42.624;23.334;2024-03-23T10:46:11;93073.88;;;14.64;46.21
12475;BME280;6302;42.624;23.334;2024-03-23T10:48:37;93053.97;;;14.81;44.58
12475;BME280;6302;42.624;23.334;2024-03-23T10:51:05;93067.03;;;15.05;44.25
12475;BME280;6302;42.624;23.334;2024-03-23T10:53:33;93056.59;;;15.10;41.59
12475;BME280;6302;42.624;23.334;2024-03-23T10:56:02;93050.72;;;15.03;42.52
12475;BME280;6302;42.624;23.334;2024-03-23T10:58:30;93051.16;;;15.26;42.34
12475;BME280;6302;42.624;23.334;2024-03-23T11:00:58;93040.06;;;15.40;40.99
12475;BME280;6302;42.624;23.334;2024-03-23T11:03:34;93015.28;;;15.15;40.68
12475;BME280;6302;42.624;23.334;2024-03-23T11:06:01;93036.53;;;15.18;41.34
12475;BME280;6302;42.624;23.334;2024-03-23T11:08:33;93035.34;;;15.32;41.44
12475;BME280;6302;42.624;23.334;2024-03-23T11:11:18;93030.25;;;15.37;39.97
12475;BME280;6302;42.624;23.334;2024-03-23T11:13:48;93023.09;;;15.34;39.32
12475;BME280;6302;42.624;23.334;2024-03-23T11:16:15;93014.22;;;15.25;41.25
12475;BME280;6302;42.624;23.334;2024-03-23T11:18:42;93007.16;;;15.56;43.20
12475;BME280;6302;42.624;23.334;2024-03-23T11:21:09;92977.97;;;15.74;42.84
12475;BME280;6302;42.624;23.334;2024-03-23T11:23:36;92999.00;;;16.19;42.75
12475;BME280;6302;42.624;23.334;2024-03-23T11:26:02;92998.63;;;16.29;41.23
12475;BME280;6302;42.624;23.334;2024-03-23T11:28:30;92995.91;;;16.42;39.80
12475;BME280;6302;42.624;23.334;2024-03-23T11:30:56;92990.56;;;16.42;38.62
12475;BME280;6302;42.624;23.334;2024-03-23T11:33:23;92992.34;;;16.23;38.18
12475;BME280;6302;42.624;23.334;2024-03-23T11:35:48;92990.78;;;16.13;38.45
12475;BME280;6302;42.624;23.334;2024-03-23T11:38:17;92983.53;;;16.14;39.34
12475;BME280;6302;42.624;23.334;2024-03-23T11:40:45;92978.34;;;15.98;38.05
12475;BME280;6302;42.624;23.334;2024-03-23T11:43:13;92972.22;;;15.97;38.76
12475;BME280;6302;42.624;23.334;2024-03-23T11:45:42;92957.31;;;15.87;38.27
12475;BME280;6302;42.624;23.334;2024-03-23T11:48:09;92962.28;;;15.98;39.19
12475;BME280;6302;42.624;23.334;2024-03-23T11:50:39;92923.75;;;15.86;37.76
12475;BME280;6302;42.624;23.334;2024-03-23T11:53:13;92951.88;;;16.12;38.17
12475;BME280;6302;42.624;23.334;2024-03-23T11:55:44;92945.50;;;16.32;38.59
12475;BME280;6302;42.624;23.334;2024-03-23T11:58:12;92931.59;;;16.46;39.43
12475;BME280;6302;42.624;23.334;2024-03-23T12:00:38;92934.56;;;16.69;38.17
12475;BME280;6302;42.624;23.334;2024-03-23T12:03:06;92928.34;;;16.72;36.72
12475;BME280;6302;42.624;23.334;2024-03-23T12:05:33;92927.53;;;16.54;36.70
12475;BME280;6302;42.624;23.334;2024-03-23T12:08:19;92916.25;;;16.59;38.91
12475;BME280;6302;42.624;23.334;2024-03-23T12:10:48;92907.16;;;16.87;39.28
12475;BME280;6302;42.624;23.334;2024-03-23T12:13:16;92897.09;;;16.91;37.43
12475;BME280;6302;42.624;23.334;2024-03-23T12:15:44;92901.47;;;17.16;36.07
12475;BME280;6302;42.624;23.334;2024-03-23T12:18:12;92902.72;;;17.33;37.04
12475;BME280;6302;42.624;23.334;2024-03-23T12:20:39;92897.06;;;17.49;37.65
12475;BME280;6302;42.624;23.334;2024-03-23T12:23:06;92894.00;;;17.60;35.57
12475;BME280;6302;42.624;23.334;2024-03-23T12:25:34;92890.88;;;17.61;35.74
12475;BME280;6302;42.624;23.334;2024-03-23T12:28:00;92904.81;;;17.38;35.62
12475;BME280;6302;42.624;23.334;2024-03-23T12:30:27;92896.56;;;17.23;35.41
12475;BME280;6302;42.624;23.334;2024-03-23T12:32:53;92883.75;;;17.09;35.74
12475;BME280;6302;42.624;23.334;2024-03-23T12:35:21;92881.94;;;17.06;35.98
12475;BME280;6302;42.624;23.334;2024-03-23T12:37:48;92868.59;;;17.15;35.39
12475;BME280;6302;42.624;23.334;2024-03-23T12:40:14;92871.63;;;17.35;35.70
12475;BME280;6302;42.624;23.334;2024-03-23T12:42:41;92866.16;;;17.57;36.02
12475;BME280;6302;42.624;23.334;2024-03-23T12:45:07;92869.88;;;17.69;34.85
12475;BME280;6302;42.624;23.334;2024-03-23T12:47:34;92862.66;;;17.29;34.44
12475;BME280;6302;42.624;23.334;2024-03-23T12:50:00;92856.38;;;17.14;33.55
12475;BME280;6302;42.624;23.334;2024-03-23T12:52:28;92860.56;;;17.15;35.13
12475;BME280;6302;42.624;23.334;2024-03-23T12:54:55;92847.94;;;17.25;35.53
12475;BME280;6302;42.624;23.334;2024-03-23T12:57:23;92847.34;;;17.39;35.00
12475;BME280;6302;42.624;23.334;2024-03-23T12:59:49;92841.59;;;17.59;34.56
12475;BME280;6302;42.624;23.334;2024-03-23T13:02:18;92836.84;;;17.72;32.98
12475;BME280;6302;42.624;23.334;2024-03-23T13:04:45;92833.13;;;17.60;32.81
12475;BME280;6302;42.624;23.334;2024-03-23T13:07:12;92838.75;;;17.53;32.32
12475;BME280;6302;42.624;23.334;2024-03-23T13:09:39;92827.13;;;17.47;31.53
12475;BME280;6302;42.624;23.334;2024-03-23T13:12:07;92829.94;;;17.25;30.25
12475;BME280;6302;42.624;23.334;2024-03-23T13:14:33;92798.06;;;17.00;31.25
12475;BME280;6302;42.624;23.334;2024-03-23T13:16:59;92818.94;;;17.32;31.10
12475;BME280;6302;42.624;23.334;2024-03-23T13:19:25;92815.63;;;17.19;30.57
12475;BME280;6302;42.624;23.334;2024-03-23T13:21:53;92797.47;;;17.14;30.78
12475;BME280;6302;42.624;23.334;2024-03-23T13:24:22;92803.63;;;17.33;30.31
12475;BME280;6302;42.624;23.334;2024-03-23T13:26:51;92808.81;;;17.36;31.31
12475;BME280;6302;42.624;23.334;2024-03-23T13:29:17;92810.28;;;17.28;30.88
12475;BME280;6302;42.624;23.334;2024-03-23T13:31:44;92805.84;;;17.43;31.26
12475;BME280;6302;42.624;23.334;2024-03-23T13:34:10;92806.59;;;17.71;31.67
12475;BME280;6302;42.624;23.334;2024-03-23T13:36:36;92793.63;;;17.88;31.16
12475;BME280;6302;42.624;23.334;2024-03-23T13:39:02;92796.59;;;17.99;30.45
12475;BME280;6302;42.624;23.334;2024-03-23T13:41:31;92795.97;;;18.13;29.64
12475;BME280;6302;42.624;23.334;2024-03-23T13:43:59;92787.59;;;18.20;28.61
12475;BME280;6302;42.624;23.334;2024-03-23T13:46:25;92786.84;;;18.29;27.08
12475;BME280;6302;42.624;23.334;2024-03-23T13:48:51;92787.69;;;18.35;25.60
12475;BME280;6302;42.624;23.334;2024-03-23T13:51:23;92776.88;;;18.29;26.14
12475;BME280;6302;42.624;23.334;2024-03-23T13:53:49;92788.88;;;18.43;26.53
12475;BME280;6302;42.624;23.334;2024-03-23T13:56:16;92786.34;;;18.48;26.16